Terminal Aerodrome Forecast
Issued by NWS

Home | Current Version | Previous Version | Text Only | Print | Product List | Glossary On
Versions: 1 2 3 4 5 6 7 8 9 10 11 12 13 14
000
FTUS43 KMPX 172300
TAFRWF
TAF
KRWF 172333Z 1800/1824 09004KT P6SM BKN250
     FM181000 10004KT 6SM BR SCT012
      TEMPO 1810/1814 4SM BR BKN012
     FM181400 15007KT P6SM SCT025
     FM181800 15013KT P6SM SCT045=

USA.gov is the U.S. government's official web portal to all federal, state and local government web resources and services.